createdAt,value
2018-12-07T00:01:30.547Z,99332.00
2018-12-07T00:03:58.830Z,99330.00
2018-12-07T00:06:27.004Z,99328.00
2018-12-07T00:08:55.319Z,99324.00
2018-12-07T00:11:23.472Z,99312.00
2018-12-07T00:13:51.665Z,99330.00
2018-12-07T00:16:20.748Z,99323.00
2018-12-07T00:18:48.901Z,99300.00
2018-12-07T00:21:17.102Z,99306.00
2018-12-07T00:23:45.292Z,99309.00
2018-12-07T00:26:13.471Z,99320.00
2018-12-07T00:28:41.768Z,99297.00
2018-12-07T00:31:09.946Z,99304.00
2018-12-07T00:33:39.017Z,99288.00
2018-12-07T00:36:07.160Z,99293.00
2018-12-07T00:38:35.366Z,99284.00
2018-12-07T00:41:03.589Z,99293.00
2018-12-07T00:43:31.745Z,99278.00
2018-12-07T00:45:59.932Z,99277.00
2018-12-07T00:48:28.096Z,99275.00
2018-12-07T00:50:56.298Z,99276.00
2018-12-07T00:53:24.470Z,99275.00
2018-12-07T00:55:52.617Z,99266.00
2018-12-07T00:58:20.823Z,99265.00
2018-12-07T01:00:49.754Z,99252.00
2018-12-07T01:03:18.848Z,99250.00
2018-12-07T01:05:46.994Z,99249.00
2018-12-07T01:08:15.155Z,99232.00
2018-12-07T01:10:43.296Z,99236.00
2018-12-07T01:13:11.436Z,99230.00
2018-12-07T01:15:39.610Z,99232.00
2018-12-07T01:18:08.718Z,99219.00
2018-12-07T01:20:36.887Z,99217.00
2018-12-07T01:23:05.078Z,99200.00
2018-12-07T01:25:33.226Z,99196.00
2018-12-07T01:28:01.386Z,99194.00
2018-12-07T01:30:29.684Z,99186.00
2018-12-07T01:32:57.852Z,99182.00
2018-12-07T01:35:26.033Z,99171.00
2018-12-07T01:37:54.218Z,99176.00
2018-12-07T01:40:22.366Z,99170.00
2018-12-07T01:42:50.523Z,99158.00
2018-12-07T01:45:18.702Z,99156.00
2018-12-07T01:47:47.719Z,99154.00
2018-12-07T01:50:15.885Z,99146.00
2018-12-07T01:52:44.192Z,99136.00
2018-12-07T01:55:12.445Z,99143.00
2018-12-07T01:57:41.465Z,99126.00
2018-12-07T02:00:10.282Z,99120.00
2018-12-07T02:02:38.432Z,99115.00
2018-12-07T02:05:07.293Z,99112.00
2018-12-07T02:07:35.734Z,99107.00
2018-12-07T02:10:05.466Z,99095.00
2018-12-07T02:12:33.739Z,99086.00
2018-12-07T02:15:01.918Z,99092.00
2018-12-07T02:17:30.080Z,99078.00
2018-12-07T02:19:58.371Z,99078.00
2018-12-07T02:22:26.579Z,99065.00
2018-12-07T02:24:54.804Z,99066.00
2018-12-07T02:27:22.967Z,99060.00
2018-12-07T02:29:51.138Z,99051.00
2018-12-07T02:32:19.289Z,99042.00
2018-12-07T02:34:48.420Z,99050.00
2018-12-07T02:37:16.624Z,99032.00
2018-12-07T02:39:44.807Z,99033.00
2018-12-07T02:42:12.982Z,99024.00
2018-12-07T02:44:42.058Z,99022.00
2018-12-07T02:47:10.235Z,99018.00
2018-12-07T02:49:38.381Z,99015.00
2018-12-07T02:52:06.568Z,99002.00
2018-12-07T02:54:34.733Z,99002.00
2018-12-07T02:57:03.585Z,99003.00
2018-12-07T02:59:31.767Z,98997.00
2018-12-07T03:02:00.225Z,98982.00
2018-12-07T03:04:28.397Z,98964.00
2018-12-07T03:06:58.035Z,98968.00
2018-12-07T03:09:26.218Z,98971.00
2018-12-07T03:11:54.388Z,98963.00
2018-12-07T03:14:22.576Z,98951.00
2018-12-07T03:16:50.738Z,98941.00
2018-12-07T03:19:18.923Z,98940.00
2018-12-07T03:21:47.198Z,98927.00
2018-12-07T03:24:16.345Z,98913.00
2018-12-07T03:26:46.435Z,98922.00
2018-12-07T03:29:15.422Z,98915.00
2018-12-07T03:31:44.158Z,98901.00
2018-12-07T03:34:12.880Z,98891.00
2018-12-07T03:36:42.265Z,98883.00
2018-12-07T03:39:11.024Z,98871.00
2018-12-07T03:41:40.081Z,98872.00
2018-12-07T03:44:09.196Z,98849.00
2018-12-07T03:46:37.937Z,98844.00
2018-12-07T03:49:06.631Z,98843.00
2018-12-07T03:51:35.505Z,98839.00
2018-12-07T03:54:05.073Z,98822.00
2018-12-07T03:56:33.891Z,98810.00
2018-12-07T03:59:02.599Z,98809.00
2018-12-07T04:01:30.812Z,98806.00
2018-12-07T04:03:58.962Z,98803.00
2018-12-07T04:06:27.148Z,98796.00
2018-12-07T04:08:55.773Z,98791.00
2018-12-07T04:11:24.035Z,98784.00
2018-12-07T04:13:52.223Z,98777.00
2018-12-07T04:16:20.500Z,98764.00
2018-12-07T04:18:48.648Z,98755.00
2018-12-07T04:21:16.834Z,98750.00
2018-12-07T04:23:44.975Z,98750.00
2018-12-07T04:26:13.134Z,98734.00
2018-12-07T04:28:41.347Z,98742.00
2018-12-07T04:31:09.633Z,98736.00
2018-12-07T04:33:37.783Z,98730.00
2018-12-07T04:36:07.513Z,98718.00
2018-12-07T04:38:36.121Z,98716.00
2018-12-07T04:41:04.266Z,98701.00
2018-12-07T04:43:32.452Z,98689.00
2018-12-07T04:46:00.608Z,98644.00
2018-12-07T04:48:28.775Z,98685.00
2018-12-07T04:50:56.944Z,98687.00
2018-12-07T04:53:25.194Z,98697.00
2018-12-07T04:55:53.469Z,98685.00
2018-12-07T04:58:21.646Z,98678.00
2018-12-07T05:00:49.834Z,98661.00
2018-12-07T05:03:17.992Z,98653.00
2018-12-07T05:05:46.176Z,98650.00
2018-12-07T05:08:14.341Z,98640.00
2018-12-07T05:10:42.492Z,98636.00
2018-12-07T05:13:10.665Z,98653.00
2018-12-07T05:15:38.809Z,98647.00
2018-12-07T05:18:06.955Z,98631.00
2018-12-07T05:20:35.133Z,98626.00
2018-12-07T05:23:03.429Z,98613.00
2018-12-07T05:25:31.608Z,98614.00
2018-12-07T05:27:59.787Z,98595.00
2018-12-07T05:30:29.240Z,98604.00
2018-12-07T05:32:57.421Z,98602.00
2018-12-07T05:35:25.589Z,98582.00
2018-12-07T05:37:53.730Z,98588.00
2018-12-07T05:40:21.891Z,98587.00
2018-12-07T05:42:50.100Z,98588.00
2018-12-07T05:45:18.372Z,98566.00
2018-12-07T05:47:46.521Z,98572.00
2018-12-07T05:50:14.706Z,98569.00
2018-12-07T05:52:42.889Z,98569.00
2018-12-07T05:55:11.034Z,98566.00
2018-12-07T05:57:39.216Z,98550.00
2018-12-07T06:00:08.223Z,98560.00
2018-12-07T06:02:36.400Z,98531.00
2018-12-07T06:05:05.808Z,98541.00
2018-12-07T06:07:33.976Z,98535.00
2018-12-07T06:10:02.130Z,98522.00
2018-12-07T06:12:30.302Z,98524.00
2018-12-07T06:14:58.472Z,98494.00
2018-12-07T06:17:26.637Z,98502.00
2018-12-07T06:19:55.401Z,98502.00
2018-12-07T06:22:23.898Z,98490.00
2018-12-07T06:24:52.076Z,98490.00
2018-12-07T06:27:20.241Z,98482.00
2018-12-07T06:29:48.418Z,98473.00
2018-12-07T06:32:16.590Z,98458.00
2018-12-07T06:34:44.749Z,98454.00
2018-12-07T06:37:12.897Z,98437.00
2018-12-07T06:39:41.806Z,98442.00
2018-12-07T06:42:09.986Z,98429.00
2018-12-07T06:44:38.157Z,98426.00
2018-12-07T06:47:07.252Z,98420.00
2018-12-07T06:49:35.401Z,98414.00
2018-12-07T06:52:03.580Z,98400.00
2018-12-07T06:54:31.773Z,98392.00
2018-12-07T06:56:59.925Z,98399.00
2018-12-07T06:59:28.070Z,98409.00
2018-12-07T07:01:56.255Z,98394.00
2018-12-07T07:04:24.404Z,98397.00
2018-12-07T07:06:52.564Z,98395.00
2018-12-07T07:09:20.762Z,98391.00
2018-12-07T07:11:49.830Z,98389.00
2018-12-07T07:14:19.636Z,98380.00
2018-12-07T07:16:47.829Z,98400.00
2018-12-07T07:19:16.153Z,98376.00
2018-12-07T07:21:44.329Z,98376.00
2018-12-07T07:24:12.508Z,98372.00
2018-12-07T07:26:40.667Z,98366.00
2018-12-07T07:29:09.690Z,98367.00
2018-12-07T07:31:43.431Z,98351.00
2018-12-07T07:34:08.036Z,98350.00
2018-12-07T07:36:36.195Z,98343.00
2018-12-07T07:39:07.403Z,98346.00
2018-12-07T07:41:35.582Z,98341.00
2018-12-07T07:44:03.863Z,98340.00
2018-12-07T07:46:32.036Z,98332.00
2018-12-07T07:49:00.446Z,98337.00
2018-12-07T07:51:28.614Z,98314.00
2018-12-07T07:53:56.801Z,98315.00
2018-12-07T07:56:24.965Z,98325.00
2018-12-07T07:58:53.133Z,98319.00
2018-12-07T08:01:21.294Z,98312.00
2018-12-07T08:03:49.460Z,98316.00
2018-12-07T08:06:17.637Z,98314.00
2018-12-07T08:08:46.117Z,98315.00
2018-12-07T08:11:14.302Z,98317.00
2018-12-07T08:13:42.461Z,98308.00
2018-12-07T08:16:10.639Z,98317.00
2018-12-07T08:18:39.092Z,98309.00
2018-12-07T08:21:07.271Z,98316.00
2018-12-07T08:23:35.455Z,98313.00
2018-12-07T08:26:03.666Z,98333.00
2018-12-07T08:28:31.872Z,98331.00
2018-12-07T08:31:00.045Z,98350.00
2018-12-07T08:33:28.549Z,98342.00
2018-12-07T08:35:56.736Z,98353.00
2018-12-07T08:38:25.156Z,98364.00
2018-12-07T08:40:54.177Z,98374.00
2018-12-07T08:43:22.351Z,98395.00
2018-12-07T08:45:52.230Z,98392.00
2018-12-07T08:48:20.396Z,98404.00
2018-12-07T08:50:48.574Z,98408.00
2018-12-07T08:53:16.738Z,98428.00
2018-12-07T08:55:44.886Z,98421.00
2018-12-07T08:58:13.115Z,98435.00
2018-12-07T09:00:41.392Z,98457.00
2018-12-07T09:03:09.555Z,98439.00
2018-12-07T09:05:37.969Z,98425.00
2018-12-07T09:08:06.214Z,98423.00
2018-12-07T09:10:34.407Z,98427.00
2018-12-07T09:13:02.591Z,98427.00
2018-12-07T09:15:30.751Z,98417.00
2018-12-07T09:17:58.914Z,98416.00
2018-12-07T09:20:27.079Z,98403.00
2018-12-07T09:22:55.239Z,98419.00
2018-12-07T09:25:23.724Z,98418.00
2018-12-07T09:27:51.898Z,98416.00
2018-12-07T09:30:20.074Z,98412.00
2018-12-07T09:32:49.030Z,98411.00
2018-12-07T09:35:17.545Z,98447.00
2018-12-07T09:37:45.693Z,98434.00
2018-12-07T09:40:14.074Z,98452.00
2018-12-07T09:42:42.247Z,98454.00
2018-12-07T09:45:10.419Z,98460.00
2018-12-07T09:47:38.571Z,98466.00
2018-12-07T09:50:07.701Z,98450.00
2018-12-07T09:52:35.872Z,98413.00
2018-12-07T09:55:04.162Z,98465.00
2018-12-07T09:57:32.372Z,98464.00
2018-12-07T10:00:00.555Z,98460.00
2018-12-07T10:02:28.715Z,98441.00
2018-12-07T10:04:56.904Z,98454.00
2018-12-07T10:07:25.077Z,98444.00
2018-12-07T10:09:53.217Z,98453.00
2018-12-07T10:12:21.439Z,98449.00
2018-12-07T10:14:49.589Z,98446.00
2018-12-07T10:17:17.735Z,98458.00
2018-12-07T10:19:46.056Z,98456.00
2018-12-07T10:22:14.220Z,98462.00
2018-12-07T10:24:42.386Z,98451.00
2018-12-07T10:27:10.572Z,98438.00
2018-12-07T10:29:38.741Z,98463.00
2018-12-07T10:32:07.806Z,98457.00
2018-12-07T10:34:36.005Z,98457.00
2018-12-07T10:37:05.919Z,98469.00
2018-12-07T10:39:34.068Z,98450.00
2018-12-07T10:42:02.240Z,98458.00
2018-12-07T10:44:30.417Z,98455.00
2018-12-07T10:46:58.580Z,98451.00
2018-12-07T10:49:26.743Z,98439.00
2018-12-07T10:51:54.914Z,98444.00
2018-12-07T10:54:23.074Z,98436.00
2018-12-07T10:56:51.251Z,98433.00
2018-12-07T10:59:19.418Z,98444.00
2018-12-07T11:01:53.026Z,98463.00
2018-12-07T11:04:26.697Z,98455.00
2018-12-07T11:10:03.532Z,98448.00
2018-12-07T11:15:43.746Z,98458.00
2018-12-07T11:18:18.186Z,98465.00
2018-12-07T11:20:51.745Z,98451.00
2018-12-07T11:23:21.906Z,98458.00
2018-12-07T11:25:55.630Z,98449.00
2018-12-07T11:28:29.373Z,98458.00
2018-12-07T11:31:03.067Z,98460.00
2018-12-07T11:33:37.540Z,98460.00
2018-12-07T11:36:08.285Z,98454.00
2018-12-07T11:38:35.869Z,98457.00
2018-12-07T11:41:04.060Z,98478.00
2018-12-07T11:43:32.471Z,98445.00
2018-12-07T11:46:00.669Z,98453.00
2018-12-07T11:48:28.850Z,98477.00
2018-12-07T11:50:57.016Z,98456.00
2018-12-07T11:53:25.197Z,98465.00
2018-12-07T11:55:53.381Z,98471.00
2018-12-07T11:58:21.548Z,98486.00
2018-12-07T12:00:49.698Z,98475.00
2018-12-07T12:03:17.894Z,98458.00
2018-12-07T12:05:46.042Z,98473.00
2018-12-07T12:08:14.314Z,98473.00
2018-12-07T12:10:42.604Z,98472.00
2018-12-07T12:13:10.778Z,98478.00
2018-12-07T12:15:38.927Z,98471.00
2018-12-07T12:18:07.116Z,98467.00
2018-12-07T12:20:35.784Z,98466.00
2018-12-07T12:23:03.958Z,98476.00
2018-12-07T12:25:32.137Z,98473.00
2018-12-07T12:28:00.317Z,98470.00
2018-12-07T12:30:28.472Z,98467.00
2018-12-07T12:32:56.680Z,98469.00
2018-12-07T12:35:24.909Z,98471.00
2018-12-07T12:37:53.088Z,98446.00
2018-12-07T12:40:21.399Z,98471.00
2018-12-07T12:42:49.546Z,98477.00
2018-12-07T12:45:17.686Z,98477.00
2018-12-07T12:47:45.849Z,98478.00
2018-12-07T12:50:16.250Z,98475.00
2018-12-07T12:52:44.503Z,98489.00
2018-12-07T12:55:12.699Z,98499.00
2018-12-07T12:57:41.386Z,98501.00
2018-12-07T13:00:09.766Z,98536.00
2018-12-07T13:02:37.938Z,98493.00
2018-12-07T13:05:06.213Z,98504.00
2018-12-07T13:07:34.369Z,98499.00
2018-12-07T13:10:02.547Z,98500.00
2018-12-07T13:12:30.734Z,98497.00
2018-12-07T13:14:58.908Z,98496.00
2018-12-07T13:17:27.095Z,98488.00
2018-12-07T13:19:55.260Z,98511.00
2018-12-07T13:22:23.538Z,98508.00
2018-12-07T13:24:51.825Z,98507.00
2018-12-07T13:27:20.000Z,98494.00
2018-12-07T13:29:48.159Z,98542.00
2018-12-07T13:32:16.334Z,98523.00
2018-12-07T13:34:44.494Z,98513.00
2018-12-07T13:37:12.664Z,98523.00
2018-12-07T13:39:40.873Z,98508.00
2018-12-07T13:42:09.260Z,98517.00
2018-12-07T13:44:37.534Z,98519.00
2018-12-07T13:47:06.209Z,98529.00
2018-12-07T13:49:34.804Z,98542.00
2018-12-07T13:52:03.268Z,98522.00
2018-12-07T13:54:31.513Z,98548.00
2018-12-07T13:56:59.841Z,98539.00
2018-12-07T13:59:28.175Z,98538.00
2018-12-07T14:01:56.520Z,98537.00
2018-12-07T14:04:25.035Z,98544.00
2018-12-07T14:06:53.701Z,98529.00
2018-12-07T14:09:22.359Z,98538.00
2018-12-07T14:11:51.051Z,98541.00
2018-12-07T14:14:19.623Z,98547.00
2018-12-07T14:16:47.962Z,98538.00
2018-12-07T14:19:16.375Z,98539.00
2018-12-07T14:21:44.680Z,98536.00
2018-12-07T14:24:13.301Z,98530.00
2018-12-07T14:26:41.826Z,98541.00
2018-12-07T14:29:10.148Z,98551.00
2018-12-07T14:31:38.412Z,98545.00
2018-12-07T14:34:06.782Z,98548.00
2018-12-07T14:36:35.364Z,98558.00
2018-12-07T14:39:06.578Z,98544.00
2018-12-07T14:41:34.721Z,98543.00
2018-12-07T14:44:03.029Z,98555.00
2018-12-07T14:46:31.485Z,98572.00
2018-12-07T14:49:00.234Z,98563.00
2018-12-07T14:51:28.720Z,98567.00
2018-12-07T14:53:57.067Z,98574.00
2018-12-07T14:56:25.527Z,98567.00
2018-12-07T14:58:53.826Z,98566.00
2018-12-07T15:01:22.008Z,98551.00
2018-12-07T15:03:50.719Z,98587.00
2018-12-07T15:06:19.255Z,98584.00
2018-12-07T15:08:47.662Z,98588.00
2018-12-07T15:11:15.808Z,98590.00
2018-12-07T15:13:44.155Z,98604.00
2018-12-07T15:16:12.852Z,98598.00
2018-12-07T15:18:41.137Z,98595.00
2018-12-07T15:21:09.461Z,98599.00
2018-12-07T15:23:37.746Z,98598.00
2018-12-07T15:26:05.987Z,98601.00
2018-12-07T15:28:34.348Z,98603.00
2018-12-07T15:31:02.950Z,98579.00
2018-12-07T15:33:31.211Z,98593.00
2018-12-07T15:35:59.542Z,98597.00
2018-12-07T15:38:28.664Z,98612.00
2018-12-07T15:40:57.254Z,98612.00
2018-12-07T15:43:26.018Z,98606.00
2018-12-07T15:45:54.268Z,98609.00
2018-12-07T15:48:22.663Z,98617.00
2018-12-07T15:50:51.225Z,98615.00
2018-12-07T15:53:19.706Z,98600.00
2018-12-07T15:55:47.997Z,98607.00
2018-12-07T15:58:16.456Z,98607.00
2018-12-07T16:00:45.047Z,98624.00
2018-12-07T16:03:14.694Z,98616.00
2018-12-07T16:05:44.765Z,98624.00
2018-12-07T16:08:14.285Z,98642.00
2018-12-07T16:10:49.067Z,98635.00
2018-12-07T16:13:15.079Z,98635.00
2018-12-07T16:15:45.817Z,98643.00
2018-12-07T16:18:14.307Z,98648.00
2018-12-07T16:20:44.014Z,98641.00
2018-12-07T16:23:13.351Z,98641.00
2018-12-07T16:25:43.338Z,98628.00
2018-12-07T16:28:13.198Z,98637.00
2018-12-07T16:30:43.224Z,98650.00
2018-12-07T16:33:12.158Z,98656.00
2018-12-07T16:35:41.641Z,98649.00
2018-12-07T16:38:11.487Z,98670.00
2018-12-07T16:40:40.574Z,98663.00
2018-12-07T16:43:10.113Z,98672.00
2018-12-07T16:45:39.308Z,98661.00
2018-12-07T16:48:08.193Z,98708.00
2018-12-07T16:50:37.090Z,98695.00
2018-12-07T16:53:06.006Z,98663.00
2018-12-07T16:55:35.127Z,98696.00
2018-12-07T16:58:04.151Z,98683.00
2018-12-07T17:00:33.627Z,98694.00
2018-12-07T17:03:03.200Z,98699.00
2018-12-07T17:05:32.743Z,98705.00
2018-12-07T17:08:02.078Z,98708.00
2018-12-07T17:10:30.926Z,98712.00
2018-12-07T17:12:59.770Z,98719.00
2018-12-07T17:15:28.777Z,98721.00
2018-12-07T17:17:57.827Z,98717.00
2018-12-07T17:20:26.740Z,98731.00
2018-12-07T17:25:37.597Z,98722.00
2018-12-07T17:28:07.008Z,98722.00
2018-12-07T17:30:38.508Z,98728.00
2018-12-07T17:33:08.849Z,98726.00
2018-12-07T17:35:40.185Z,98713.00
2018-12-07T17:38:09.705Z,98727.00
2018-12-07T17:40:37.938Z,98740.00
2018-12-07T17:43:06.073Z,98736.00
2018-12-07T17:45:34.221Z,98738.00
2018-12-07T17:48:02.402Z,98741.00
2018-12-07T17:50:30.673Z,98735.00
2018-12-07T17:52:59.695Z,98737.00
2018-12-07T17:55:28.188Z,98730.00
2018-12-07T17:57:56.448Z,98739.00
2018-12-07T18:00:24.759Z,98739.00
2018-12-07T18:02:53.467Z,98731.00
2018-12-07T18:05:21.636Z,98742.00
2018-12-07T18:07:50.559Z,98725.00
2018-12-07T18:10:19.721Z,98738.00
2018-12-07T18:12:49.733Z,98735.00
2018-12-07T18:15:18.893Z,98478.00
2018-12-07T18:17:47.107Z,98734.00
2018-12-07T18:20:15.517Z,98738.00
2018-12-07T18:22:43.992Z,98726.00
2018-12-07T18:25:12.188Z,98730.00
2018-12-07T18:27:40.550Z,98731.00
2018-12-07T18:30:09.164Z,98741.00
2018-12-07T18:32:37.520Z,98740.00
2018-12-07T18:35:06.162Z,98740.00
2018-12-07T18:37:34.613Z,98735.00
2018-12-07T18:40:04.216Z,98744.00
2018-12-07T18:42:32.557Z,98743.00
2018-12-07T18:45:00.824Z,98744.00
2018-12-07T18:47:28.998Z,98756.00
2018-12-07T18:49:57.870Z,98765.00
2018-12-07T18:52:27.250Z,98772.00
2018-12-07T18:54:56.339Z,98771.00
2018-12-07T18:57:25.959Z,98774.00
2018-12-07T18:59:55.128Z,98777.00
2018-12-07T19:02:24.347Z,98778.00
2018-12-07T19:04:54.228Z,98760.00
2018-12-07T19:07:24.571Z,98775.00
2018-12-07T19:09:52.793Z,98782.00
2018-12-07T19:12:20.983Z,98785.00
2018-12-07T19:14:49.272Z,98800.00
2018-12-07T19:17:17.854Z,98799.00
2018-12-07T19:19:46.826Z,98801.00
2018-12-07T19:22:15.174Z,98801.00
2018-12-07T19:24:43.514Z,98808.00
2018-12-07T19:27:11.973Z,98797.00
2018-12-07T19:29:40.527Z,98802.00
2018-12-07T19:32:09.056Z,98801.00
2018-12-07T19:34:37.459Z,98782.00
2018-12-07T19:37:05.999Z,98784.00
2018-12-07T19:39:36.347Z,98768.00
2018-12-07T19:42:05.224Z,98765.00
2018-12-07T19:44:33.564Z,98754.00
2018-12-07T19:47:02.569Z,98748.00
2018-12-07T19:49:31.034Z,98760.00
2018-12-07T19:51:59.330Z,98768.00
2018-12-07T19:54:30.598Z,98776.00
2018-12-07T19:56:59.507Z,98768.00
2018-12-07T19:59:28.395Z,98764.00
2018-12-07T20:01:57.543Z,98763.00
2018-12-07T20:04:27.508Z,98755.00
2018-12-07T20:06:57.197Z,98752.00
2018-12-07T20:09:26.078Z,98752.00
2018-12-07T20:11:55.534Z,98757.00
2018-12-07T20:14:24.999Z,98743.00
2018-12-07T20:16:53.212Z,98727.00
2018-12-07T20:19:21.634Z,98721.00
2018-12-07T20:21:51.783Z,98735.00
2018-12-07T20:24:22.342Z,98726.00
2018-12-07T20:26:52.242Z,98730.00
2018-12-07T20:29:22.466Z,98725.00
2018-12-07T20:31:52.487Z,98704.00
2018-12-07T20:34:21.619Z,98717.00
2018-12-07T20:36:50.863Z,98715.00
2018-12-07T20:39:20.004Z,98727.00
2018-12-07T20:41:49.077Z,98731.00
2018-12-07T20:44:18.283Z,98721.00
2018-12-07T20:46:47.860Z,98729.00
2018-12-07T20:49:17.597Z,98744.00
2018-12-07T20:51:46.679Z,98733.00
2018-12-07T20:54:15.282Z,98730.00
2018-12-07T20:56:44.259Z,98728.00
2018-12-07T20:59:12.975Z,98721.00
2018-12-07T21:01:42.054Z,98729.00
2018-12-07T21:04:32.430Z,98724.00
2018-12-07T21:10:55.771Z,98739.00
2018-12-07T21:17:08.080Z,98745.00
2018-12-07T21:19:43.289Z,98737.00
2018-12-07T21:22:12.192Z,98726.00
2018-12-07T21:24:41.477Z,98741.00
2018-12-07T21:27:10.677Z,98740.00
2018-12-07T21:29:40.205Z,98743.00
2018-12-07T21:32:13.468Z,98722.00
2018-12-07T21:34:59.963Z,98718.00
2018-12-07T21:37:29.019Z,98727.00
2018-12-07T21:40:03.077Z,98732.00
2018-12-07T21:42:31.745Z,98739.00
2018-12-07T21:44:59.981Z,98727.00
2018-12-07T21:51:02.105Z,98728.00
2018-12-07T21:53:31.158Z,98745.00
2018-12-07T21:56:00.560Z,98737.00
2018-12-07T21:58:29.808Z,98744.00
2018-12-07T22:00:58.979Z,98759.00
2018-12-07T22:03:29.571Z,98770.00
2018-12-07T22:05:58.601Z,98740.00
2018-12-07T22:08:28.068Z,98749.00
2018-12-07T22:10:57.955Z,98738.00
2018-12-07T22:13:26.926Z,98734.00
2018-12-07T22:15:55.369Z,98748.00
2018-12-07T22:18:24.066Z,98740.00
2018-12-07T22:20:53.191Z,98749.00
2018-12-07T22:23:21.648Z,98741.00
2018-12-07T22:25:50.163Z,98726.00
2018-12-07T22:28:18.525Z,98717.00
2018-12-07T22:30:46.947Z,98709.00
2018-12-07T22:33:15.221Z,98702.00
2018-12-07T22:35:43.734Z,98720.00
2018-12-07T22:38:12.317Z,98719.00
2018-12-07T22:40:41.116Z,98731.00
2018-12-07T22:43:09.646Z,98731.00
2018-12-07T22:45:38.359Z,98726.00
2018-12-07T22:48:07.137Z,98729.00
2018-12-07T22:50:35.587Z,98729.00
2018-12-07T22:53:03.756Z,98723.00
2018-12-07T22:55:31.911Z,98721.00
2018-12-07T22:58:00.065Z,98721.00
2018-12-07T23:00:28.364Z,98720.00
2018-12-07T23:02:57.167Z,98727.00
2018-12-07T23:05:25.322Z,98737.00
2018-12-07T23:07:53.664Z,98714.00
2018-12-07T23:10:21.806Z,98727.00
2018-12-07T23:12:49.943Z,98727.00
2018-12-07T23:15:18.139Z,98733.00
2018-12-07T23:17:46.308Z,98721.00
2018-12-07T23:20:14.493Z,98729.00
2018-12-07T23:22:42.672Z,98742.00
2018-12-07T23:25:11.099Z,98729.00
2018-12-07T23:27:39.272Z,98736.00
2018-12-07T23:30:09.477Z,98734.00
2018-12-07T23:32:37.651Z,98731.00
2018-12-07T23:35:06.238Z,98736.00
2018-12-07T23:37:34.392Z,98746.00
2018-12-07T23:40:02.553Z,98744.00
2018-12-07T23:42:30.732Z,98737.00
2018-12-07T23:44:59.008Z,98732.00
2018-12-07T23:47:27.434Z,98727.00
2018-12-07T23:49:55.804Z,98729.00
2018-12-07T23:52:23.945Z,98732.00
2018-12-07T23:54:52.099Z,98744.00
2018-12-07T23:57:20.280Z,98735.00
2018-12-07T23:59:48.460Z,98734.00
